createdAt,value
2023-04-18T00:04:50.355Z,100573.81
2023-04-18T00:09:52.106Z,100575.41
2023-04-18T00:14:53.718Z,100576.59
2023-04-18T00:19:56.447Z,100585.13
2023-04-18T00:24:58.089Z,100579.00
2023-04-18T00:29:59.722Z,100572.00
2023-04-18T00:35:01.448Z,100570.03
2023-04-18T00:40:03.251Z,100567.38
2023-04-18T00:45:05.579Z,100571.25
2023-04-18T00:50:09.694Z,100562.00
2023-04-18T00:55:11.709Z,100560.47
2023-04-18T01:00:13.906Z,100562.91
2023-04-18T01:05:15.665Z,100556.53
2023-04-18T01:10:17.320Z,100562.34
2023-04-18T01:15:18.968Z,100557.81
2023-04-18T01:20:21.939Z,100562.47
2023-04-18T01:25:23.676Z,100555.88
2023-04-18T01:30:25.561Z,100564.16
2023-04-18T01:35:27.614Z,100558.13
2023-04-18T01:40:31.414Z,100555.19
2023-04-18T01:45:34.410Z,100551.50
2023-04-18T01:50:36.660Z,100550.28
2023-04-18T01:55:38.331Z,100553.94
2023-04-18T02:00:41.003Z,100549.97
2023-04-18T02:05:42.703Z,100555.59
2023-04-18T02:10:45.644Z,100548.53
2023-04-18T02:15:47.291Z,100543.31
2023-04-18T02:20:49.773Z,100544.00
2023-04-18T02:25:51.455Z,100554.72
2023-04-18T02:30:53.168Z,100550.47
2023-04-18T02:35:54.815Z,100550.31
2023-04-18T02:40:56.486Z,100552.00
2023-04-18T02:45:58.199Z,100553.41
2023-04-18T02:51:07.109Z,100554.28
2023-04-18T02:56:11.892Z,100555.13
2023-04-18T03:01:33.010Z,100565.38
2023-04-18T03:06:43.611Z,100559.31
2023-04-18T03:11:46.666Z,100565.28
2023-04-18T03:16:52.988Z,100566.56
2023-04-18T03:21:59.395Z,100561.06
2023-04-18T03:27:02.422Z,100566.28
2023-04-18T03:32:04.889Z,100565.66
2023-04-18T03:37:07.173Z,100561.28
2023-04-18T03:42:15.576Z,100561.59
2023-04-18T03:47:18.613Z,100569.06
2023-04-18T03:52:23.780Z,100570.69
2023-04-18T03:57:25.536Z,100579.44
2023-04-18T04:02:27.342Z,100575.75
2023-04-18T04:07:29.209Z,100580.75
2023-04-18T04:12:31.253Z,100587.72
2023-04-18T04:17:33.907Z,100592.22
2023-04-18T04:22:36.705Z,100585.91
2023-04-18T04:27:39.043Z,100590.53
2023-04-18T04:32:44.740Z,100601.53
2023-04-18T04:37:46.733Z,100606.78
2023-04-18T04:43:01.733Z,100609.19
2023-04-18T04:48:09.893Z,100614.22
2023-04-18T04:53:11.910Z,100622.06
2023-04-18T04:58:14.593Z,100620.50
2023-04-18T05:03:34.180Z,100627.00
2023-04-18T05:08:37.794Z,100631.28
2023-04-18T05:13:39.415Z,100637.84
2023-04-18T05:18:41.627Z,100629.50
2023-04-18T05:23:43.282Z,100637.69
2023-04-18T05:28:44.937Z,100636.00
2023-04-18T05:33:46.581Z,100640.13
2023-04-18T05:38:48.247Z,100640.50
2023-04-18T05:44:01.756Z,100640.31
2023-04-18T05:49:06.801Z,100653.81
2023-04-18T05:54:08.441Z,100651.94
2023-04-18T05:59:10.088Z,100648.63
2023-04-18T06:04:11.891Z,100651.41
2023-04-18T06:09:13.803Z,100657.31
2023-04-18T06:14:15.804Z,100663.84
2023-04-18T06:19:17.635Z,100666.72
2023-04-18T06:24:19.324Z,100671.03
2023-04-18T06:29:22.956Z,100672.38
2023-04-18T06:34:24.667Z,100670.91
2023-04-18T06:39:27.963Z,100690.25
2023-04-18T06:44:29.640Z,100698.22
2023-04-18T06:49:31.296Z,100694.66
2023-04-18T06:54:34.874Z,100692.78
2023-04-18T06:59:37.503Z,100681.78
2023-04-18T07:04:39.226Z,100678.03
2023-04-18T07:09:40.931Z,100690.81
2023-04-18T07:14:42.584Z,100686.13
2023-04-18T07:19:45.202Z,100683.59
2023-04-18T07:24:46.948Z,100682.78
2023-04-18T07:29:48.574Z,100691.75
2023-04-18T07:34:51.467Z,100698.16
2023-04-18T07:39:53.121Z,100699.06
2023-04-18T07:44:58.913Z,100698.34
2023-04-18T07:50:00.732Z,100700.34
2023-04-18T07:55:02.364Z,100712.19
2023-04-18T08:00:04.782Z,100711.91
2023-04-18T08:05:14.383Z,100707.34
2023-04-18T08:10:16.142Z,100708.13
2023-04-18T08:15:17.895Z,100708.66
2023-04-18T08:20:19.928Z,100705.63
2023-04-18T08:25:21.590Z,100693.97
2023-04-18T08:30:23.517Z,100701.84
2023-04-18T08:35:25.368Z,100705.00
2023-04-18T08:40:27.021Z,100712.06
2023-04-18T08:45:28.921Z,100708.72
2023-04-18T08:50:30.836Z,100701.88
2023-04-18T08:55:33.727Z,100714.41
2023-04-18T09:00:35.377Z,100716.97
2023-04-18T09:05:37.013Z,100713.00
2023-04-18T09:10:38.919Z,100715.13
2023-04-18T09:15:40.938Z,100720.50
2023-04-18T09:20:42.696Z,100716.72
2023-04-18T09:25:48.811Z,100710.78
2023-04-18T09:30:52.691Z,100715.41
2023-04-18T09:35:55.494Z,100716.16
2023-04-18T09:41:11.149Z,100712.97
2023-04-18T09:46:14.167Z,100730.84
2023-04-18T09:51:16.678Z,100714.59
2023-04-18T09:56:28.020Z,100721.47
2023-04-18T10:01:30.978Z,100719.97
2023-04-18T10:06:39.669Z,100713.16
2023-04-18T10:11:41.620Z,100712.16
2023-04-18T10:16:45.685Z,100714.59
2023-04-18T10:21:58.586Z,100721.06
2023-04-18T10:27:00.430Z,100716.41
2023-04-18T10:32:08.094Z,100718.16
2023-04-18T10:37:09.850Z,100714.16
2023-04-18T10:42:11.465Z,100720.38
2023-04-18T10:47:16.052Z,100714.31
2023-04-18T10:52:17.905Z,100704.88
2023-04-18T10:57:19.548Z,100706.41
2023-04-18T11:02:31.068Z,100709.47
2023-04-18T11:07:37.831Z,100708.94
2023-04-18T11:12:40.915Z,100710.38
2023-04-18T11:17:43.000Z,100711.75
2023-04-18T11:22:51.811Z,100710.72
2023-04-18T11:27:55.639Z,100712.47
2023-04-18T11:32:57.350Z,100715.34
2023-04-18T11:37:59.039Z,100717.81
2023-04-18T11:43:02.571Z,100716.81
2023-04-18T11:48:04.266Z,100709.38
2023-04-18T11:53:06.120Z,100716.53
2023-04-18T11:58:07.950Z,100716.97
2023-04-18T12:03:17.967Z,100713.47
2023-04-18T12:08:21.056Z,100710.69
2023-04-18T12:13:27.127Z,100714.06
2023-04-18T12:18:30.034Z,100716.72
2023-04-18T12:23:37.127Z,100714.63
2023-04-18T12:28:38.847Z,100717.44
2023-04-18T12:33:40.595Z,100715.59
2023-04-18T12:38:43.439Z,100715.22
2023-04-18T12:43:45.178Z,100716.50
2023-04-18T12:48:47.175Z,100703.69
2023-04-18T12:53:48.901Z,100710.59
2023-04-18T12:58:50.789Z,100712.88
2023-04-18T13:04:04.025Z,100709.91
2023-04-18T13:09:13.140Z,100705.56
2023-04-18T13:14:15.205Z,100704.28
2023-04-18T13:19:17.012Z,100703.31
2023-04-18T13:24:18.783Z,100704.72
2023-04-18T13:29:20.501Z,100709.81
2023-04-18T13:34:22.139Z,100708.69
2023-04-18T13:39:24.905Z,100702.91
2023-04-18T13:44:26.831Z,100692.59
2023-04-18T13:49:28.634Z,100697.41
2023-04-18T13:54:32.457Z,100703.75
2023-04-18T13:59:34.082Z,100705.03
2023-04-18T14:04:36.715Z,100704.19
2023-04-18T14:09:38.464Z,100703.34
2023-04-18T14:14:40.218Z,100704.75
2023-04-18T14:19:41.942Z,100704.50
2023-04-18T14:24:43.619Z,100708.13
2023-04-18T14:29:45.325Z,100709.84
2023-04-18T14:34:46.999Z,100705.75
2023-04-18T14:39:48.740Z,100699.13
2023-04-18T14:44:50.448Z,100693.72
2023-04-18T14:49:52.081Z,100698.53
2023-04-18T14:54:53.681Z,100695.00
2023-04-18T14:59:55.298Z,100688.94
2023-04-18T15:04:57.048Z,100691.34
2023-04-18T15:09:58.981Z,100694.16
2023-04-18T15:15:00.683Z,100686.28
2023-04-18T15:20:05.579Z,100693.75
2023-04-18T15:25:07.727Z,100694.31
2023-04-18T15:30:12.145Z,100688.50
2023-04-18T15:35:14.174Z,100684.28
2023-04-18T15:40:18.776Z,100688.81
2023-04-18T15:45:21.422Z,100686.94
2023-04-18T15:50:24.007Z,100686.97
2023-04-18T15:55:25.704Z,100687.53
2023-04-18T16:00:27.456Z,100690.06
2023-04-18T16:05:29.235Z,100681.88
2023-04-18T16:10:30.961Z,100685.41
2023-04-18T16:15:33.156Z,100694.75
2023-04-18T16:20:34.840Z,100696.69
2023-04-18T16:25:36.491Z,100687.66
2023-04-18T16:30:38.496Z,100691.19
2023-04-18T16:35:40.351Z,100687.09
2023-04-18T16:40:41.964Z,100687.09
2023-04-18T16:45:43.634Z,100683.00
2023-04-18T16:50:45.824Z,100693.59
2023-04-18T16:55:47.471Z,100699.69
2023-04-18T17:00:49.362Z,100697.13
2023-04-18T17:05:51.016Z,100691.47
2023-04-18T17:10:52.881Z,100698.28
2023-04-18T17:15:54.614Z,100699.97
2023-04-18T17:20:56.388Z,100702.34
2023-04-18T17:25:58.056Z,100710.00
2023-04-18T17:31:01.413Z,100698.25
2023-04-18T17:36:06.363Z,100697.53
2023-04-18T17:41:08.156Z,100702.63
2023-04-18T17:46:10.544Z,100703.91
2023-04-18T17:51:12.235Z,100701.50
2023-04-18T17:56:13.910Z,100700.94
2023-04-18T18:01:20.222Z,100700.50
2023-04-18T18:06:21.894Z,100706.31
2023-04-18T18:11:23.818Z,100705.47
2023-04-18T18:16:26.039Z,100712.22
2023-04-18T18:21:28.786Z,100713.81
2023-04-18T18:26:30.937Z,100715.06
2023-04-18T18:31:32.572Z,100712.78
2023-04-18T18:36:34.270Z,100713.09
2023-04-18T18:41:35.899Z,100719.72
2023-04-18T18:46:37.558Z,100725.94
2023-04-18T18:51:40.932Z,100724.38
2023-04-18T18:56:42.819Z,100728.38
2023-04-18T19:01:44.507Z,100730.47
2023-04-18T19:06:46.175Z,100723.97
2023-04-18T19:11:47.903Z,100724.53
2023-04-18T19:16:50.264Z,100722.13
2023-04-18T19:21:51.892Z,100722.00
2023-04-18T19:26:53.537Z,100719.88
2023-04-18T19:31:55.322Z,100713.94
2023-04-18T19:36:57.003Z,100718.72
2023-04-18T19:41:58.621Z,100711.97
2023-04-18T19:47:00.276Z,100706.88
2023-04-18T19:52:02.019Z,100706.44
2023-04-18T19:57:04.754Z,100706.44
2023-04-18T20:02:06.747Z,100699.81
2023-04-18T20:07:08.579Z,100696.13
2023-04-18T20:12:10.355Z,100705.91
2023-04-18T20:17:11.992Z,100701.50
2023-04-18T20:22:15.076Z,100692.88
2023-04-18T20:27:20.368Z,100696.28
2023-04-18T20:32:22.434Z,100696.56
2023-04-18T20:37:24.554Z,100687.81
2023-04-18T20:42:27.207Z,100702.34
2023-04-18T20:47:29.089Z,100694.72
2023-04-18T20:52:30.722Z,100687.41
2023-04-18T20:57:32.348Z,100684.00
2023-04-18T21:02:34.173Z,100690.78
2023-04-18T21:07:36.347Z,100687.09
2023-04-18T21:12:37.976Z,100683.56
2023-04-18T21:17:39.655Z,100691.31
2023-04-18T21:22:41.323Z,100680.19
2023-04-18T21:27:42.979Z,100676.06
2023-04-18T21:32:46.112Z,100667.28
2023-04-18T21:37:47.887Z,100664.66
2023-04-18T21:42:52.645Z,100666.06
2023-04-18T21:47:54.283Z,100662.63
2023-04-18T21:52:55.961Z,100656.31
2023-04-18T21:57:57.605Z,100656.16
2023-04-18T22:02:59.384Z,100646.28
2023-04-18T22:08:02.828Z,100642.63
2023-04-18T22:13:04.861Z,100636.09
2023-04-18T22:18:09.569Z,100630.31
2023-04-18T22:23:11.656Z,100635.16
2023-04-18T22:28:13.267Z,100622.28
2023-04-18T22:33:14.875Z,100631.59
2023-04-18T22:38:16.619Z,100626.66
2023-04-18T22:43:22.802Z,100622.44
2023-04-18T22:48:24.709Z,100619.88
2023-04-18T22:53:26.391Z,100612.53
2023-04-18T22:58:28.207Z,100611.41
2023-04-18T23:03:34.230Z,100609.56
2023-04-18T23:08:36.130Z,100613.97
2023-04-18T23:13:37.783Z,100606.91
2023-04-18T23:18:39.409Z,100602.53
2023-04-18T23:23:41.007Z,100598.97
2023-04-18T23:28:42.737Z,100595.03
2023-04-18T23:33:45.427Z,100595.31
2023-04-18T23:38:47.076Z,100596.72
2023-04-18T23:43:49.136Z,100588.38
2023-04-18T23:48:50.990Z,100587.09
2023-04-18T23:53:52.647Z,100575.75
2023-04-18T23:58:54.245Z,100567.31
